createdAt,value
2019-03-05T00:00:44.349Z,9.23
2019-03-05T00:03:12.530Z,4.13
2019-03-05T00:05:40.716Z,7.60
2019-03-05T00:08:08.924Z,7.77
2019-03-05T00:10:37.121Z,5.13
2019-03-05T00:13:05.281Z,6.33
2019-03-05T00:15:33.473Z,5.37
2019-03-05T00:18:01.650Z,8.47
2019-03-05T00:20:30.330Z,7.20
2019-03-05T00:22:58.816Z,8.23
2019-03-05T00:25:37.412Z,6.50
2019-03-05T00:28:31.089Z,6.47
2019-03-05T00:31:04.828Z,9.77
2019-03-05T00:33:45.366Z,9.13
2019-03-05T00:36:22.392Z,7.90
2019-03-05T00:39:08.044Z,5.63
2019-03-05T00:41:39.300Z,7.77
2019-03-05T00:44:25.060Z,5.03
2019-03-05T00:46:59.115Z,7.47
2019-03-05T00:49:52.341Z,5.43
2019-03-05T00:52:32.309Z,4.60
2019-03-05T00:55:22.998Z,4.83
2019-03-05T00:57:59.869Z,1.93
2019-03-05T01:00:43.064Z,3.10
2019-03-05T01:03:35.735Z,3.13
2019-03-05T01:06:21.645Z,3.33
2019-03-05T01:08:49.877Z,4.33
2019-03-05T01:11:18.491Z,2.13
2019-03-05T01:13:46.956Z,3.10
2019-03-05T01:16:16.837Z,3.67
2019-03-05T01:18:45.351Z,1.70
2019-03-05T01:21:13.935Z,1.77
2019-03-05T01:23:42.118Z,1.13
2019-03-05T01:26:10.353Z,1.97
2019-03-05T01:28:38.661Z,0.60
2019-03-05T01:31:08.876Z,0.83
2019-03-05T01:33:44.609Z,0.57
2019-03-05T01:36:32.733Z,1.13
2019-03-05T01:39:08.453Z,0.70
2019-03-05T01:41:36.897Z,1.47
2019-03-05T01:44:05.132Z,0.97
2019-03-05T01:46:33.301Z,1.27
2019-03-05T01:49:01.456Z,0.93
2019-03-05T01:51:29.641Z,0.77
2019-03-05T01:53:57.805Z,3.77
2019-03-05T01:56:26.249Z,2.20
2019-03-05T01:58:54.401Z,1.40
2019-03-05T02:01:22.586Z,3.93
2019-03-05T02:03:50.742Z,1.03
2019-03-05T02:06:19.869Z,0.20
2019-03-05T02:08:48.122Z,2.77
2019-03-05T02:11:16.355Z,1.43
2019-03-05T02:13:44.558Z,1.10
2019-03-05T02:16:12.782Z,1.50
2019-03-05T02:18:40.949Z,2.37
2019-03-05T02:21:09.112Z,1.30
2019-03-05T02:23:49.102Z,3.27
2019-03-05T02:26:36.506Z,1.43
2019-03-05T02:29:13.058Z,2.50
2019-03-05T02:31:44.471Z,1.50
2019-03-05T02:34:18.482Z,2.53
2019-03-05T02:37:02.144Z,3.73
2019-03-05T02:39:33.416Z,4.43
2019-03-05T02:42:28.798Z,1.43
2019-03-05T02:45:03.136Z,2.80
2019-03-05T02:47:49.121Z,3.27
2019-03-05T02:50:35.001Z,1.77
2019-03-05T02:53:18.197Z,6.30
2019-03-05T02:56:10.573Z,4.37
2019-03-05T02:58:37.683Z,2.07
2019-03-05T03:01:10.661Z,6.07
2019-03-05T03:03:40.489Z,1.10
2019-03-05T03:06:10.621Z,1.83
2019-03-05T03:08:38.794Z,4.77
2019-03-05T03:11:07.040Z,4.70
2019-03-05T03:13:35.214Z,5.47
2019-03-05T03:16:03.721Z,4.60
2019-03-05T03:18:32.227Z,5.93
2019-03-05T03:21:00.445Z,2.43
2019-03-05T03:23:28.623Z,3.53
2019-03-05T03:25:56.785Z,4.33
2019-03-05T03:28:25.319Z,3.67
2019-03-05T03:30:53.479Z,4.10
2019-03-05T03:33:21.657Z,2.93
2019-03-05T03:35:49.899Z,4.77
2019-03-05T03:38:18.402Z,5.10
2019-03-05T03:40:46.559Z,4.90
2019-03-05T03:43:14.748Z,4.53
2019-03-05T03:45:42.986Z,2.87
2019-03-05T03:48:11.173Z,3.07
2019-03-05T03:50:39.334Z,6.90
2019-03-05T03:53:07.523Z,3.07
2019-03-05T03:55:35.683Z,6.73
2019-03-05T03:58:04.112Z,5.30
2019-03-05T04:00:32.290Z,7.03
2019-03-05T04:03:00.513Z,6.90
2019-03-05T04:05:28.694Z,3.93
2019-03-05T04:07:56.874Z,3.60
2019-03-05T04:10:25.061Z,5.93
2019-03-05T04:12:53.230Z,4.57
2019-03-05T04:15:21.476Z,4.87
2019-03-05T04:17:49.736Z,4.53
2019-03-05T04:20:26.166Z,5.13
2019-03-05T04:22:54.430Z,11.40
2019-03-05T04:25:22.925Z,9.57
2019-03-05T04:27:51.094Z,10.07
2019-03-05T04:30:19.609Z,5.83
2019-03-05T04:32:47.799Z,6.57
2019-03-05T04:35:15.962Z,7.03
2019-03-05T04:37:44.141Z,8.83
2019-03-05T04:40:12.739Z,9.03
2019-03-05T04:42:40.905Z,3.23
2019-03-05T04:45:32.250Z,3.17
2019-03-05T04:48:00.405Z,5.53
2019-03-05T04:50:45.485Z,3.90
2019-03-05T04:53:13.645Z,7.07
2019-03-05T04:55:41.885Z,4.70
2019-03-05T04:58:10.037Z,5.00
2019-03-05T05:00:38.199Z,8.23
2019-03-05T05:03:06.664Z,4.73
2019-03-05T05:05:34.821Z,5.07
2019-03-05T05:08:03.078Z,5.10
2019-03-05T05:10:31.238Z,4.13
2019-03-05T05:12:59.422Z,4.20
2019-03-05T05:15:34.742Z,2.67
2019-03-05T05:18:03.059Z,3.83
2019-03-05T05:20:31.217Z,5.50
2019-03-05T05:22:59.464Z,6.23
2019-03-05T05:25:27.633Z,4.77
2019-03-05T05:27:55.793Z,5.07
2019-03-05T05:30:32.679Z,4.77
2019-03-05T05:33:00.883Z,3.87
2019-03-05T05:35:29.115Z,3.07
2019-03-05T05:37:57.575Z,6.50
2019-03-05T05:40:33.357Z,6.50
2019-03-05T05:43:01.661Z,4.77
2019-03-05T05:45:47.886Z,3.97
2019-03-05T05:48:16.115Z,3.67
2019-03-05T05:50:44.386Z,5.70
2019-03-05T05:53:12.541Z,7.77
2019-03-05T05:55:40.704Z,6.07
2019-03-05T05:58:08.887Z,5.57
2019-03-05T06:00:38.982Z,3.33
2019-03-05T06:03:07.146Z,2.00
2019-03-05T06:05:35.330Z,4.07
2019-03-05T06:08:03.825Z,5.00
2019-03-05T06:10:32.010Z,4.90
2019-03-05T06:13:00.186Z,4.13
2019-03-05T06:15:28.355Z,2.83
2019-03-05T06:17:56.612Z,4.47
2019-03-05T06:20:25.083Z,4.90
2019-03-05T06:22:53.271Z,3.90
2019-03-05T06:25:21.438Z,3.93
2019-03-05T06:27:49.903Z,3.87
2019-03-05T06:30:24.237Z,5.00
2019-03-05T06:32:52.510Z,3.47
2019-03-05T06:35:20.977Z,3.43
2019-03-05T06:37:49.142Z,2.40
2019-03-05T06:40:25.868Z,4.13
2019-03-05T06:42:54.120Z,4.77
2019-03-05T06:45:22.316Z,6.20
2019-03-05T06:47:50.533Z,5.03
2019-03-05T06:50:20.974Z,3.80
2019-03-05T06:52:49.454Z,6.33
2019-03-05T06:55:17.695Z,4.50
2019-03-05T06:57:45.954Z,3.97
2019-03-05T07:00:35.385Z,7.03
2019-03-05T07:03:05.556Z,6.30
2019-03-05T07:06:10.636Z,3.97
2019-03-05T07:08:44.484Z,2.10
2019-03-05T07:11:18.657Z,3.10
2019-03-05T07:13:48.283Z,2.07
2019-03-05T07:16:36.058Z,3.50
2019-03-05T07:19:05.058Z,6.23
2019-03-05T07:22:06.639Z,1.97
2019-03-05T07:24:46.084Z,2.87
2019-03-05T07:27:17.042Z,3.27
2019-03-05T07:29:45.221Z,2.43
2019-03-05T07:32:13.422Z,5.70
2019-03-05T07:34:43.221Z,5.27
2019-03-05T07:37:12.798Z,6.10
2019-03-05T07:39:41.037Z,5.23
2019-03-05T07:44:57.488Z,6.23
2019-03-05T07:47:25.644Z,4.50
2019-03-05T07:49:54.122Z,6.37
2019-03-05T07:52:22.306Z,1.97
2019-03-05T07:54:52.514Z,2.73
2019-03-05T07:57:20.694Z,3.27
2019-03-05T07:59:49.753Z,1.70
2019-03-05T08:02:17.925Z,3.03
2019-03-05T08:04:46.080Z,1.20
2019-03-05T08:07:14.340Z,2.07
2019-03-05T08:09:42.504Z,0.90
2019-03-05T08:12:22.625Z,2.10
2019-03-05T08:15:16.507Z,2.40
2019-03-05T08:17:47.072Z,1.13
2019-03-05T08:20:15.457Z,2.33
2019-03-05T08:22:43.622Z,0.93
2019-03-05T08:25:12.560Z,1.57
2019-03-05T08:27:40.720Z,0.97
2019-03-05T08:30:15.041Z,1.17
2019-03-05T08:32:43.384Z,2.63
2019-03-05T08:35:11.906Z,1.07
2019-03-05T08:37:40.411Z,1.70
2019-03-05T08:40:11.910Z,2.10
2019-03-05T08:42:40.077Z,1.67
2019-03-05T08:45:14.453Z,0.80
2019-03-05T08:47:42.702Z,0.83
2019-03-05T08:50:15.275Z,0.50
2019-03-05T08:52:43.448Z,0.93
2019-03-05T08:55:12.872Z,0.60
2019-03-05T08:57:41.421Z,2.13
2019-03-05T09:00:13.009Z,0.63
2019-03-05T09:02:48.433Z,1.20
2019-03-05T09:05:12.293Z,1.03
2019-03-05T09:07:40.490Z,2.60
2019-03-05T09:10:17.640Z,0.73
2019-03-05T09:12:46.165Z,0.80
2019-03-05T09:15:20.734Z,0.80
2019-03-05T09:17:49.154Z,0.67
2019-03-05T09:20:18.757Z,0.50
2019-03-05T09:22:47.074Z,0.57
2019-03-05T09:25:16.446Z,2.03
2019-03-05T09:27:44.910Z,2.57
2019-03-05T09:30:18.820Z,0.43
2019-03-05T09:32:48.382Z,0.90
2019-03-05T09:35:17.202Z,1.13
2019-03-05T09:37:46.537Z,0.60
2019-03-05T09:40:23.208Z,0.50
2019-03-05T09:42:51.945Z,0.67
2019-03-05T09:45:21.354Z,0.73
2019-03-05T09:47:49.594Z,1.80
2019-03-05T09:50:19.122Z,2.23
2019-03-05T09:52:55.009Z,1.07
2019-03-05T09:55:24.745Z,1.07
2019-03-05T09:58:07.015Z,0.67
2019-03-05T10:00:28.223Z,1.30
2019-03-05T10:02:56.726Z,1.47
2019-03-05T10:05:24.891Z,0.97
2019-03-05T10:07:53.155Z,0.50
2019-03-05T10:10:26.586Z,3.07
2019-03-05T10:12:59.092Z,0.90
2019-03-05T10:15:26.305Z,1.00
2019-03-05T10:17:54.553Z,0.73
2019-03-05T10:20:25.021Z,0.80
2019-03-05T10:22:53.206Z,1.10
2019-03-05T10:25:28.250Z,2.37
2019-03-05T10:27:57.102Z,1.83
2019-03-05T10:30:27.026Z,1.73
2019-03-05T10:32:56.249Z,0.97
2019-03-05T10:35:25.367Z,0.73
2019-03-05T10:37:55.397Z,1.20
2019-03-05T10:40:32.537Z,1.37
2019-03-05T10:43:08.501Z,1.20
2019-03-05T10:45:31.796Z,0.67
2019-03-05T10:48:00.292Z,0.50
2019-03-05T10:50:30.068Z,0.50
2019-03-05T10:52:58.589Z,0.80
2019-03-05T10:55:26.838Z,1.60
2019-03-05T10:57:55.132Z,0.30
2019-03-05T11:00:27.239Z,0.40
2019-03-05T11:02:55.773Z,1.13
2019-03-05T11:05:25.298Z,1.03
2019-03-05T11:07:53.566Z,1.43
2019-03-05T11:10:21.734Z,2.53
2019-03-05T11:12:50.157Z,2.30
2019-03-05T11:15:23.473Z,1.37
2019-03-05T11:17:51.930Z,0.80
2019-03-05T11:20:20.238Z,1.60
2019-03-05T11:22:49.345Z,0.83
2019-03-05T11:25:18.930Z,0.40
2019-03-05T11:27:47.169Z,0.57
2019-03-05T11:30:20.585Z,0.87
2019-03-05T11:32:48.764Z,1.00
2019-03-05T11:35:19.875Z,0.57
2019-03-05T11:37:48.303Z,1.40
2019-03-05T11:40:21.311Z,0.50
2019-03-05T11:42:48.590Z,0.80
2019-03-05T11:45:22.299Z,0.83
2019-03-05T11:47:50.539Z,0.40
2019-03-05T11:50:18.909Z,1.03
2019-03-05T11:52:47.194Z,2.20
2019-03-05T11:55:18.317Z,0.83
2019-03-05T11:57:46.877Z,0.93
2019-03-05T12:00:48.686Z,0.60
2019-03-05T12:03:16.996Z,1.13
2019-03-05T12:05:45.241Z,1.23
2019-03-05T12:08:13.421Z,3.10
2019-03-05T12:10:41.616Z,1.67
2019-03-05T12:13:09.920Z,1.30
2019-03-05T12:15:43.095Z,4.90
2019-03-05T12:18:11.281Z,1.20
2019-03-05T12:20:39.586Z,1.93
2019-03-05T12:23:10.382Z,2.93
2019-03-05T12:25:39.805Z,2.90
2019-03-05T12:28:10.656Z,5.47
2019-03-05T12:30:38.273Z,4.03
2019-03-05T12:33:06.757Z,4.30
2019-03-05T12:35:35.593Z,2.27
2019-03-05T12:38:04.105Z,2.67
2019-03-05T12:40:32.294Z,0.50
2019-03-05T12:43:00.494Z,2.73
2019-03-05T12:45:28.666Z,3.20
2019-03-05T12:47:56.853Z,1.00
2019-03-05T12:50:28.118Z,1.17
2019-03-05T12:52:57.310Z,1.93
2019-03-05T12:55:25.545Z,0.77
2019-03-05T12:57:53.733Z,2.90
2019-03-05T13:00:28.822Z,0.50
2019-03-05T13:02:57.369Z,0.73
2019-03-05T13:05:25.537Z,1.90
2019-03-05T13:07:56.620Z,1.43
2019-03-05T13:10:35.979Z,2.30
2019-03-05T13:13:02.157Z,1.10
2019-03-05T13:15:35.749Z,1.67
2019-03-05T13:18:04.270Z,0.60
2019-03-05T13:20:32.821Z,0.97
2019-03-05T13:23:01.123Z,1.80
2019-03-05T13:25:31.155Z,1.30
2019-03-05T13:28:02.285Z,0.67
2019-03-05T13:30:30.902Z,1.27
2019-03-05T13:33:00.761Z,1.20
2019-03-05T13:35:30.545Z,2.13
2019-03-05T13:38:09.335Z,2.37
2019-03-05T13:40:38.699Z,0.90
2019-03-05T13:43:07.536Z,1.27
2019-03-05T13:45:36.130Z,2.47
2019-03-05T13:48:19.683Z,0.60
2019-03-05T13:51:15.097Z,1.30
2019-03-05T13:54:12.250Z,1.13
2019-03-05T13:57:03.149Z,2.80
2019-03-05T13:59:40.164Z,1.30
2019-03-05T14:02:09.495Z,2.30
2019-03-05T14:04:46.101Z,1.57
2019-03-05T14:07:48.636Z,0.87
2019-03-05T14:10:17.111Z,2.23
2019-03-05T14:12:45.258Z,2.10
2019-03-05T14:15:14.055Z,1.20
2019-03-05T14:17:43.018Z,1.40
2019-03-05T14:20:17.199Z,1.60
2019-03-05T14:22:45.505Z,2.13
2019-03-05T14:25:15.459Z,0.87
2019-03-05T14:27:43.766Z,1.03
2019-03-05T14:30:15.360Z,1.27
2019-03-05T14:32:43.946Z,2.60
2019-03-05T14:35:13.585Z,2.87
2019-03-05T14:37:42.145Z,3.40
2019-03-05T14:40:24.097Z,2.77
2019-03-05T14:42:46.523Z,3.57
2019-03-05T14:45:23.662Z,3.33
2019-03-05T14:47:53.947Z,3.07
2019-03-05T14:50:22.147Z,3.97
2019-03-05T14:52:50.341Z,4.93
2019-03-05T14:55:18.590Z,4.70
2019-03-05T14:57:47.189Z,3.33
2019-03-05T15:00:20.719Z,7.83
2019-03-05T15:02:49.089Z,4.73
2019-03-05T15:05:17.520Z,2.57
2019-03-05T15:07:45.748Z,2.77
2019-03-05T15:10:13.958Z,3.10
2019-03-05T15:12:42.135Z,2.77
2019-03-05T15:15:19.478Z,3.33
2019-03-05T15:17:47.743Z,4.00
2019-03-05T15:20:16.201Z,1.53
2019-03-05T15:22:44.766Z,3.60
2019-03-05T15:25:14.692Z,3.00
2019-03-05T15:27:42.967Z,2.37
2019-03-05T15:30:20.327Z,2.23
2019-03-05T15:32:48.578Z,3.43
2019-03-05T15:35:17.239Z,3.13
2019-03-05T15:37:45.694Z,2.67
2019-03-05T15:40:17.668Z,2.63
2019-03-05T15:42:45.930Z,2.00
2019-03-05T15:45:16.687Z,5.43
2019-03-05T15:47:44.893Z,2.57
2019-03-05T15:50:21.779Z,1.60
2019-03-05T15:52:50.119Z,6.37
2019-03-05T15:55:18.361Z,5.93
2019-03-05T15:57:46.550Z,4.33
2019-03-05T16:00:17.927Z,5.00
2019-03-05T16:02:46.182Z,4.03
2019-03-05T16:05:16.585Z,3.70
2019-03-05T16:07:48.085Z,3.90
2019-03-05T16:10:18.782Z,3.00
2019-03-05T16:12:47.346Z,1.70
2019-03-05T16:15:18.629Z,5.20
2019-03-05T16:17:45.982Z,1.97
2019-03-05T16:20:18.520Z,2.43
2019-03-05T16:22:46.695Z,6.30
2019-03-05T16:25:19.258Z,2.27
2019-03-05T16:27:47.758Z,1.90
2019-03-05T16:30:34.232Z,3.27
2019-03-05T16:33:05.548Z,3.20
2019-03-05T16:35:35.715Z,3.33
2019-03-05T16:38:22.106Z,4.50
2019-03-05T16:40:57.557Z,2.70
2019-03-05T16:43:29.989Z,3.50
2019-03-05T16:46:18.074Z,2.20
2019-03-05T16:49:00.166Z,4.17
2019-03-05T16:51:29.981Z,2.50
2019-03-05T16:54:03.170Z,5.37
2019-03-05T16:56:32.984Z,7.63
2019-03-05T16:59:19.135Z,3.03
2019-03-05T17:02:04.386Z,2.67
2019-03-05T17:04:46.177Z,2.47
2019-03-05T17:07:21.702Z,5.07
2019-03-05T17:10:07.979Z,2.80
2019-03-05T17:12:36.176Z,3.70
2019-03-05T17:15:06.081Z,3.60
2019-03-05T17:17:34.249Z,3.53
2019-03-05T17:20:02.437Z,2.33
2019-03-05T17:22:30.601Z,2.63
2019-03-05T17:24:58.790Z,2.50
2019-03-05T17:27:26.958Z,3.67
2019-03-05T17:29:55.429Z,4.73
2019-03-05T17:32:23.833Z,4.60
2019-03-05T17:34:52.017Z,11.13
2019-03-05T17:37:20.198Z,5.53
2019-03-05T17:39:48.466Z,3.03
2019-03-05T17:42:17.010Z,7.40
2019-03-05T17:44:45.201Z,4.80
2019-03-05T17:47:13.370Z,4.20
2019-03-05T17:49:41.613Z,3.83
2019-03-05T17:52:09.782Z,5.83
2019-03-05T17:54:38.237Z,4.73
2019-03-05T17:57:08.842Z,4.00
2019-03-05T17:59:36.480Z,7.47
2019-03-05T18:02:04.782Z,5.43
2019-03-05T18:04:32.965Z,2.33
2019-03-05T18:07:01.378Z,4.00
2019-03-05T18:09:29.561Z,2.07
2019-03-05T18:11:57.734Z,8.50
2019-03-05T18:14:25.945Z,4.73
2019-03-05T18:16:54.201Z,6.70
2019-03-05T18:19:22.745Z,4.70
2019-03-05T18:21:50.923Z,4.50
2019-03-05T18:24:19.099Z,8.70
2019-03-05T18:26:47.263Z,4.83
2019-03-05T18:29:15.448Z,4.03
2019-03-05T18:31:43.642Z,2.90
2019-03-05T18:34:11.822Z,8.30
2019-03-05T18:36:40.281Z,3.67
2019-03-05T18:39:10.502Z,5.70
2019-03-05T18:41:38.698Z,4.83
2019-03-05T18:44:06.857Z,2.60
2019-03-05T18:46:35.044Z,4.00
2019-03-05T18:49:03.213Z,2.60
2019-03-05T18:51:31.395Z,5.23
2019-03-05T18:53:59.845Z,5.23
2019-03-05T18:56:28.043Z,3.37
2019-03-05T18:58:56.281Z,2.70
2019-03-05T19:01:24.449Z,3.03
2019-03-05T19:03:52.657Z,2.83
2019-03-05T19:06:20.876Z,3.77
2019-03-05T19:08:49.058Z,3.27
2019-03-05T19:11:17.389Z,3.80
2019-03-05T19:13:45.565Z,3.23
2019-03-05T19:16:13.732Z,3.07
2019-03-05T19:18:41.902Z,7.00
2019-03-05T19:21:10.083Z,6.07
2019-03-05T19:23:38.844Z,5.10
2019-03-05T19:26:07.862Z,4.07
2019-03-05T19:28:36.046Z,2.77
2019-03-05T19:31:04.766Z,11.60
2019-03-05T19:33:32.945Z,4.30
2019-03-05T19:36:01.400Z,4.57
2019-03-05T19:38:29.571Z,5.20
2019-03-05T19:40:57.753Z,5.83
2019-03-05T19:43:25.918Z,2.20
2019-03-05T19:45:54.117Z,3.73
2019-03-05T19:48:22.285Z,2.80
2019-03-05T19:53:42.369Z,7.53
2019-03-05T19:56:10.570Z,2.53
2019-03-05T19:58:39.179Z,5.20
2019-03-05T20:01:15.333Z,2.73
2019-03-05T20:03:43.510Z,5.00
2019-03-05T20:06:12.402Z,7.03
2019-03-05T20:08:40.974Z,5.10
2019-03-05T20:11:09.133Z,4.87
2019-03-05T20:13:37.686Z,4.63
2019-03-05T20:16:06.730Z,5.00
2019-03-05T20:18:35.006Z,3.17
2019-03-05T20:21:03.237Z,3.37
2019-03-05T20:23:31.751Z,5.40
2019-03-05T20:26:00.014Z,7.20
2019-03-05T20:28:28.268Z,8.20
2019-03-05T20:30:56.524Z,5.53
2019-03-05T20:33:24.710Z,5.63
2019-03-05T20:35:52.933Z,4.40
2019-03-05T20:38:21.412Z,7.17
2019-03-05T20:40:50.002Z,4.73
2019-03-05T20:43:18.203Z,7.30
2019-03-05T20:46:01.653Z,4.97
2019-03-05T20:48:29.923Z,5.47
2019-03-05T20:50:58.319Z,3.10
2019-03-05T20:53:26.718Z,4.03
2019-03-05T20:55:55.002Z,4.53
2019-03-05T20:58:23.453Z,5.23
2019-03-05T21:00:51.973Z,11.73
2019-03-05T21:03:20.454Z,1.70
2019-03-05T21:05:49.359Z,6.80
2019-03-05T21:08:17.623Z,8.00
2019-03-05T21:10:45.799Z,5.50
2019-03-05T21:13:13.964Z,6.00
2019-03-05T21:15:42.142Z,8.77
2019-03-05T21:18:12.262Z,5.27
2019-03-05T21:20:40.427Z,12.23
2019-03-05T21:23:09.003Z,3.43
2019-03-05T21:25:37.167Z,7.30
2019-03-05T21:28:05.654Z,6.00
2019-03-05T21:30:33.820Z,6.10
2019-03-05T21:33:02.002Z,5.63
2019-03-05T21:35:30.189Z,5.97
2019-03-05T21:37:58.371Z,5.50
2019-03-05T21:40:31.694Z,4.87
2019-03-05T21:42:59.874Z,8.43
2019-03-05T21:45:33.646Z,6.53
2019-03-05T21:48:02.210Z,6.50
2019-03-05T21:50:30.903Z,5.80
2019-03-05T21:52:59.214Z,2.40
2019-03-05T21:55:27.486Z,3.33
2019-03-05T21:57:55.885Z,4.30
2019-03-05T22:00:32.181Z,3.30
2019-03-05T22:03:01.648Z,5.33
2019-03-05T22:05:30.561Z,3.50
2019-03-05T22:07:59.326Z,5.37
2019-03-05T22:10:27.725Z,4.23
2019-03-05T22:12:56.038Z,5.20
2019-03-05T22:15:34.783Z,4.93
2019-03-05T22:18:03.256Z,2.53
2019-03-05T22:20:31.624Z,2.47
2019-03-05T22:23:02.009Z,3.60
2019-03-05T22:25:30.460Z,4.10
2019-03-05T22:27:58.874Z,4.00
2019-03-05T22:30:32.192Z,3.27
2019-03-05T22:33:01.294Z,6.17
2019-03-05T22:35:29.652Z,4.00
2019-03-05T22:37:58.029Z,3.50
2019-03-05T22:40:27.711Z,3.03
2019-03-05T22:42:56.408Z,4.70
2019-03-05T22:45:34.313Z,4.93
2019-03-05T22:48:02.765Z,4.30
2019-03-05T22:50:31.099Z,3.43
2019-03-05T22:52:59.430Z,3.83
2019-03-05T22:55:27.847Z,5.23
2019-03-05T22:57:56.414Z,5.93
2019-03-05T23:00:51.907Z,3.93
2019-03-05T23:03:23.207Z,3.93
2019-03-05T23:05:51.769Z,6.27
2019-03-05T23:08:21.893Z,4.83
2019-03-05T23:10:50.393Z,3.77
2019-03-05T23:13:19.124Z,5.97
2019-03-05T23:15:47.325Z,5.90
2019-03-05T23:18:16.092Z,4.00
2019-03-05T23:20:44.274Z,5.23
2019-03-05T23:23:12.453Z,5.30
2019-03-05T23:25:40.643Z,4.53
2019-03-05T23:28:08.829Z,5.80
2019-03-05T23:30:37.204Z,5.10
2019-03-05T23:33:05.482Z,11.50
2019-03-05T23:35:34.019Z,8.47
2019-03-05T23:38:02.506Z,4.60
2019-03-05T23:40:30.688Z,4.67
2019-03-05T23:42:58.875Z,7.03
2019-03-05T23:45:27.121Z,4.90
2019-03-05T23:47:55.301Z,5.93
2019-03-05T23:50:23.470Z,6.23
2019-03-05T23:52:51.649Z,8.03
2019-03-05T23:55:20.129Z,5.67
2019-03-05T23:57:48.313Z,7.27
